sensor_id;sensor_type;location;lat;lon;timestamp;P1;durP1;ratioP1;P2;durP2;ratioP2
40339;SDS011;26044;50.864;20.658;2022-12-18T00:00:35;68.32;;;25.83;;
40339;SDS011;26044;50.864;20.658;2022-12-18T00:03:07;70.33;;;24.57;;
40339;SDS011;26044;50.864;20.658;2022-12-18T00:05:58;64.13;;;23.33;;
40339;SDS011;26044;50.864;20.658;2022-12-18T00:08:32;69.60;;;25.58;;
40339;SDS011;26044;50.864;20.658;2022-12-18T00:11:03;65.95;;;23.40;;
40339;SDS011;26044;50.864;20.658;2022-12-18T00:13:32;60.80;;;23.87;;
40339;SDS011;26044;50.864;20.658;2022-12-18T00:16:06;59.70;;;23.02;;
40339;SDS011;26044;50.864;20.658;2022-12-18T00:18:35;61.55;;;22.35;;
40339;SDS011;26044;50.864;20.658;2022-12-18T00:21:17;58.85;;;22.17;;
40339;SDS011;26044;50.864;20.658;2022-12-18T00:23:48;52.08;;;19.27;;
40339;SDS011;26044;50.864;20.658;2022-12-18T00:26:39;51.00;;;18.47;;
40339;SDS011;26044;50.864;20.658;2022-12-18T00:29:23;55.23;;;20.07;;
40339;SDS011;26044;50.864;20.658;2022-12-18T00:31:53;53.03;;;20.57;;
40339;SDS011;26044;50.864;20.658;2022-12-18T00:34:34;54.10;;;20.73;;
40339;SDS011;26044;50.864;20.658;2022-12-18T00:37:11;53.47;;;19.97;;
40339;SDS011;26044;50.864;20.658;2022-12-18T00:39:45;56.60;;;21.92;;
40339;SDS011;26044;50.864;20.658;2022-12-18T00:42:24;54.23;;;20.43;;
40339;SDS011;26044;50.864;20.658;2022-12-18T00:45:20;51.38;;;20.17;;
40339;SDS011;26044;50.864;20.658;2022-12-18T00:50:39;47.88;;;18.98;;
40339;SDS011;26044;50.864;20.658;2022-12-18T00:53:10;49.50;;;18.98;;
40339;SDS011;26044;50.864;20.658;2022-12-18T00:55:38;50.75;;;19.52;;
40339;SDS011;26044;50.864;20.658;2022-12-18T00:58:14;45.97;;;18.83;;
40339;SDS011;26044;50.864;20.658;2022-12-18T01:00:47;48.83;;;18.52;;
40339;SDS011;26044;50.864;20.658;2022-12-18T01:03:18;46.47;;;17.87;;
40339;SDS011;26044;50.864;20.658;2022-12-18T01:05:58;47.20;;;18.52;;
40339;SDS011;26044;50.864;20.658;2022-12-18T01:08:30;42.33;;;17.50;;
40339;SDS011;26044;50.864;20.658;2022-12-18T01:11:00;44.92;;;16.23;;
40339;SDS011;26044;50.864;20.658;2022-12-18T01:13:39;44.22;;;17.45;;
40339;SDS011;26044;50.864;20.658;2022-12-18T01:16:16;44.20;;;16.67;;
40339;SDS011;26044;50.864;20.658;2022-12-18T01:18:50;40.53;;;16.48;;
40339;SDS011;26044;50.864;20.658;2022-12-18T01:21:45;41.95;;;16.25;;
40339;SDS011;26044;50.864;20.658;2022-12-18T01:24:26;48.42;;;15.82;;
40339;SDS011;26044;50.864;20.658;2022-12-18T01:26:56;47.10;;;18.10;;
40339;SDS011;26044;50.864;20.658;2022-12-18T01:29:30;43.97;;;15.48;;
40339;SDS011;26044;50.864;20.658;2022-12-18T01:31:59;47.07;;;18.37;;
40339;SDS011;26044;50.864;20.658;2022-12-18T01:34:35;42.20;;;15.73;;
40339;SDS011;26044;50.864;20.658;2022-12-18T01:37:07;45.15;;;15.93;;
40339;SDS011;26044;50.864;20.658;2022-12-18T01:39:34;41.08;;;14.73;;
40339;SDS011;26044;50.864;20.658;2022-12-18T01:42:10;45.53;;;17.50;;
40339;SDS011;26044;50.864;20.658;2022-12-18T01:49:47;43.50;;;16.90;;
40339;SDS011;26044;50.864;20.658;2022-12-18T01:52:31;53.15;;;18.38;;
40339;SDS011;26044;50.864;20.658;2022-12-18T01:55:03;43.57;;;15.73;;
40339;SDS011;26044;50.864;20.658;2022-12-18T01:57:39;47.40;;;18.60;;
40339;SDS011;26044;50.864;20.658;2022-12-18T02:00:21;39.30;;;16.27;;
40339;SDS011;26044;50.864;20.658;2022-12-18T02:03:01;46.28;;;16.48;;
40339;SDS011;26044;50.864;20.658;2022-12-18T02:08:26;47.00;;;17.58;;
40339;SDS011;26044;50.864;20.658;2022-12-18T02:11:05;45.55;;;17.15;;
40339;SDS011;26044;50.864;20.658;2022-12-18T02:18:52;46.30;;;18.03;;
40339;SDS011;26044;50.864;20.658;2022-12-18T02:23:59;46.55;;;17.77;;
40339;SDS011;26044;50.864;20.658;2022-12-18T02:26:50;46.40;;;16.90;;
40339;SDS011;26044;50.864;20.658;2022-12-18T02:29:22;46.47;;;17.10;;
40339;SDS011;26044;50.864;20.658;2022-12-18T02:31:57;53.90;;;18.45;;
40339;SDS011;26044;50.864;20.658;2022-12-18T02:34:43;43.88;;;18.50;;
40339;SDS011;26044;50.864;20.658;2022-12-18T02:40:03;44.13;;;17.48;;
40339;SDS011;26044;50.864;20.658;2022-12-18T02:42:42;45.58;;;17.55;;
40339;SDS011;26044;50.864;20.658;2022-12-18T02:45:10;45.08;;;16.33;;
40339;SDS011;26044;50.864;20.658;2022-12-18T02:48:09;50.38;;;18.15;;
40339;SDS011;26044;50.864;20.658;2022-12-18T02:51:08;48.08;;;17.98;;
40339;SDS011;26044;50.864;20.658;2022-12-18T02:53:58;46.97;;;17.95;;
40339;SDS011;26044;50.864;20.658;2022-12-18T02:56:32;49.27;;;19.17;;
40339;SDS011;26044;50.864;20.658;2022-12-18T02:59:02;47.55;;;18.40;;
40339;SDS011;26044;50.864;20.658;2022-12-18T03:01:45;51.13;;;18.27;;
40339;SDS011;26044;50.864;20.658;2022-12-18T03:04:25;47.85;;;17.38;;
40339;SDS011;26044;50.864;20.658;2022-12-18T03:07:18;42.40;;;15.53;;
40339;SDS011;26044;50.864;20.658;2022-12-18T03:09:54;48.45;;;15.70;;
40339;SDS011;26044;50.864;20.658;2022-12-18T03:12:34;47.72;;;18.52;;
40339;SDS011;26044;50.864;20.658;2022-12-18T03:15:27;47.40;;;17.50;;
40339;SDS011;26044;50.864;20.658;2022-12-18T03:17:57;53.47;;;18.52;;
40339;SDS011;26044;50.864;20.658;2022-12-18T03:20:39;46.63;;;18.23;;
40339;SDS011;26044;50.864;20.658;2022-12-18T03:23:19;49.40;;;19.90;;
40339;SDS011;26044;50.864;20.658;2022-12-18T03:25:54;53.33;;;18.40;;
40339;SDS011;26044;50.864;20.658;2022-12-18T03:28:35;47.88;;;19.85;;
40339;SDS011;26044;50.864;20.658;2022-12-18T03:31:06;68.72;;;26.33;;
40339;SDS011;26044;50.864;20.658;2022-12-18T03:36:03;49.97;;;19.13;;
40339;SDS011;26044;50.864;20.658;2022-12-18T03:38:39;54.33;;;19.52;;
40339;SDS011;26044;50.864;20.658;2022-12-18T03:53:17;50.08;;;18.00;;
40339;SDS011;26044;50.864;20.658;2022-12-18T03:55:51;55.65;;;20.85;;
40339;SDS011;26044;50.864;20.658;2022-12-18T03:58:23;55.10;;;19.13;;
40339;SDS011;26044;50.864;20.658;2022-12-18T04:00:53;57.92;;;19.52;;
40339;SDS011;26044;50.864;20.658;2022-12-18T04:03:26;52.45;;;19.02;;
40339;SDS011;26044;50.864;20.658;2022-12-18T04:05:58;54.65;;;19.33;;
40339;SDS011;26044;50.864;20.658;2022-12-18T04:08:30;50.38;;;17.52;;
40339;SDS011;26044;50.864;20.658;2022-12-18T04:11:03;50.67;;;16.05;;
40339;SDS011;26044;50.864;20.658;2022-12-18T04:13:36;49.63;;;17.17;;
40339;SDS011;26044;50.864;20.658;2022-12-18T04:16:12;47.60;;;17.23;;
40339;SDS011;26044;50.864;20.658;2022-12-18T04:18:40;42.83;;;15.80;;
40339;SDS011;26044;50.864;20.658;2022-12-18T04:21:07;49.13;;;17.00;;
40339;SDS011;26044;50.864;20.658;2022-12-18T04:23:43;43.00;;;14.68;;
40339;SDS011;26044;50.864;20.658;2022-12-18T04:26:11;46.35;;;15.18;;
40339;SDS011;26044;50.864;20.658;2022-12-18T04:28:59;51.17;;;17.98;;
40339;SDS011;26044;50.864;20.658;2022-12-18T04:31:35;44.95;;;15.85;;
40339;SDS011;26044;50.864;20.658;2022-12-18T04:34:07;45.38;;;15.73;;
40339;SDS011;26044;50.864;20.658;2022-12-18T04:39:33;48.10;;;15.90;;
40339;SDS011;26044;50.864;20.658;2022-12-18T04:42:04;45.80;;;14.73;;
40339;SDS011;26044;50.864;20.658;2022-12-18T04:44:40;53.67;;;16.60;;
40339;SDS011;26044;50.864;20.658;2022-12-18T04:47:15;46.42;;;16.88;;
40339;SDS011;26044;50.864;20.658;2022-12-18T04:49:43;47.58;;;15.85;;
40339;SDS011;26044;50.864;20.658;2022-12-18T04:52:12;45.17;;;16.07;;
40339;SDS011;26044;50.864;20.658;2022-12-18T04:54:41;48.53;;;16.42;;
40339;SDS011;26044;50.864;20.658;2022-12-18T04:57:08;50.25;;;17.35;;
40339;SDS011;26044;50.864;20.658;2022-12-18T04:59:44;44.07;;;14.43;;
40339;SDS011;26044;50.864;20.658;2022-12-18T05:02:13;43.88;;;15.13;;
40339;SDS011;26044;50.864;20.658;2022-12-18T05:04:44;43.33;;;15.75;;
40339;SDS011;26044;50.864;20.658;2022-12-18T05:07:13;50.25;;;16.17;;
40339;SDS011;26044;50.864;20.658;2022-12-18T05:09:45;42.75;;;14.57;;
40339;SDS011;26044;50.864;20.658;2022-12-18T05:12:12;40.35;;;14.43;;
40339;SDS011;26044;50.864;20.658;2022-12-18T05:14:40;47.30;;;15.40;;
40339;SDS011;26044;50.864;20.658;2022-12-18T05:17:11;43.33;;;13.90;;
40339;SDS011;26044;50.864;20.658;2022-12-18T05:19:38;49.70;;;15.67;;
40339;SDS011;26044;50.864;20.658;2022-12-18T05:24:38;49.90;;;15.97;;
40339;SDS011;26044;50.864;20.658;2022-12-18T05:27:08;46.60;;;14.77;;
40339;SDS011;26044;50.864;20.658;2022-12-18T05:29:37;43.23;;;15.87;;
40339;SDS011;26044;50.864;20.658;2022-12-18T05:32:08;45.35;;;15.77;;
40339;SDS011;26044;50.864;20.658;2022-12-18T05:34:35;49.33;;;14.45;;
40339;SDS011;26044;50.864;20.658;2022-12-18T05:37:05;51.88;;;15.63;;
40339;SDS011;26044;50.864;20.658;2022-12-18T05:39:39;48.10;;;17.05;;
40339;SDS011;26044;50.864;20.658;2022-12-18T05:42:06;49.50;;;16.90;;
40339;SDS011;26044;50.864;20.658;2022-12-18T05:44:43;46.50;;;16.70;;
40339;SDS011;26044;50.864;20.658;2022-12-18T05:47:17;48.30;;;16.48;;
40339;SDS011;26044;50.864;20.658;2022-12-18T05:49:47;48.30;;;15.60;;
40339;SDS011;26044;50.864;20.658;2022-12-18T05:52:21;46.88;;;16.30;;
40339;SDS011;26044;50.864;20.658;2022-12-18T05:55:01;50.67;;;17.35;;
40339;SDS011;26044;50.864;20.658;2022-12-18T05:57:32;50.95;;;17.52;;
40339;SDS011;26044;50.864;20.658;2022-12-18T06:00:04;48.65;;;17.80;;
40339;SDS011;26044;50.864;20.658;2022-12-18T06:02:32;47.10;;;17.90;;
40339;SDS011;26044;50.864;20.658;2022-12-18T06:05:00;53.60;;;17.98;;
40339;SDS011;26044;50.864;20.658;2022-12-18T06:07:29;55.53;;;20.92;;
40339;SDS011;26044;50.864;20.658;2022-12-18T06:10:05;59.33;;;19.83;;
40339;SDS011;26044;50.864;20.658;2022-12-18T06:12:33;56.88;;;19.73;;
40339;SDS011;26044;50.864;20.658;2022-12-18T06:15:01;53.67;;;18.10;;
40339;SDS011;26044;50.864;20.658;2022-12-18T06:17:30;58.78;;;18.92;;
40339;SDS011;26044;50.864;20.658;2022-12-18T06:19:57;56.35;;;18.45;;
40339;SDS011;26044;50.864;20.658;2022-12-18T06:22:25;54.13;;;17.08;;
40339;SDS011;26044;50.864;20.658;2022-12-18T06:25:04;50.85;;;18.35;;
40339;SDS011;26044;50.864;20.658;2022-12-18T06:27:33;58.60;;;19.42;;
40339;SDS011;26044;50.864;20.658;2022-12-18T06:30:10;55.20;;;20.20;;
40339;SDS011;26044;50.864;20.658;2022-12-18T06:32:41;54.95;;;19.23;;
40339;SDS011;26044;50.864;20.658;2022-12-18T06:35:10;61.75;;;20.02;;
40339;SDS011;26044;50.864;20.658;2022-12-18T06:37:37;57.50;;;19.10;;
40339;SDS011;26044;50.864;20.658;2022-12-18T06:40:04;56.55;;;19.63;;
40339;SDS011;26044;50.864;20.658;2022-12-18T06:42:32;55.80;;;19.75;;
40339;SDS011;26044;50.864;20.658;2022-12-18T06:44:59;56.50;;;21.80;;
40339;SDS011;26044;50.864;20.658;2022-12-18T06:47:29;54.10;;;19.63;;
40339;SDS011;26044;50.864;20.658;2022-12-18T06:49:56;61.00;;;19.30;;
40339;SDS011;26044;50.864;20.658;2022-12-18T06:52:23;52.60;;;18.67;;
40339;SDS011;26044;50.864;20.658;2022-12-18T06:54:59;60.58;;;20.77;;
40339;SDS011;26044;50.864;20.658;2022-12-18T06:57:28;54.30;;;18.70;;
40339;SDS011;26044;50.864;20.658;2022-12-18T06:59:58;47.60;;;17.98;;
40339;SDS011;26044;50.864;20.658;2022-12-18T07:02:25;53.60;;;17.57;;
40339;SDS011;26044;50.864;20.658;2022-12-18T07:04:53;49.70;;;17.30;;
40339;SDS011;26044;50.864;20.658;2022-12-18T07:07:20;50.13;;;17.35;;
40339;SDS011;26044;50.864;20.658;2022-12-18T07:09:49;52.33;;;17.63;;
40339;SDS011;26044;50.864;20.658;2022-12-18T07:12:16;45.83;;;16.33;;
40339;SDS011;26044;50.864;20.658;2022-12-18T07:14:51;48.72;;;17.85;;
40339;SDS011;26044;50.864;20.658;2022-12-18T07:17:24;48.72;;;18.10;;
40339;SDS011;26044;50.864;20.658;2022-12-18T07:19:58;47.08;;;15.80;;
40339;SDS011;26044;50.864;20.658;2022-12-18T07:22:29;47.55;;;16.92;;
40339;SDS011;26044;50.864;20.658;2022-12-18T07:25:03;55.88;;;17.48;;
40339;SDS011;26044;50.864;20.658;2022-12-18T07:27:37;48.97;;;18.60;;
40339;SDS011;26044;50.864;20.658;2022-12-18T07:30:09;42.50;;;15.33;;
40339;SDS011;26044;50.864;20.658;2022-12-18T07:33:04;44.17;;;15.47;;
40339;SDS011;26044;50.864;20.658;2022-12-18T07:35:35;43.50;;;16.52;;
40339;SDS011;26044;50.864;20.658;2022-12-18T07:38:10;48.95;;;16.85;;
40339;SDS011;26044;50.864;20.658;2022-12-18T07:40:46;49.70;;;17.23;;
40339;SDS011;26044;50.864;20.658;2022-12-18T07:43:42;47.25;;;14.35;;
40339;SDS011;26044;50.864;20.658;2022-12-18T07:46:10;40.47;;;15.73;;
40339;SDS011;26044;50.864;20.658;2022-12-18T07:48:42;47.17;;;17.15;;
40339;SDS011;26044;50.864;20.658;2022-12-18T07:51:14;46.30;;;16.35;;
40339;SDS011;26044;50.864;20.658;2022-12-18T07:53:43;44.65;;;15.30;;
40339;SDS011;26044;50.864;20.658;2022-12-18T07:56:11;46.03;;;16.20;;
40339;SDS011;26044;50.864;20.658;2022-12-18T07:58:58;45.08;;;14.32;;
40339;SDS011;26044;50.864;20.658;2022-12-18T08:01:28;41.57;;;15.00;;
40339;SDS011;26044;50.864;20.658;2022-12-18T08:03:58;45.72;;;15.77;;
40339;SDS011;26044;50.864;20.658;2022-12-18T08:06:26;45.53;;;18.10;;
40339;SDS011;26044;50.864;20.658;2022-12-18T08:09:02;47.80;;;17.73;;
40339;SDS011;26044;50.864;20.658;2022-12-18T08:11:47;49.25;;;17.60;;
40339;SDS011;26044;50.864;20.658;2022-12-18T08:14:17;42.60;;;15.18;;
40339;SDS011;26044;50.864;20.658;2022-12-18T08:16:49;46.20;;;15.52;;
40339;SDS011;26044;50.864;20.658;2022-12-18T08:19:16;41.00;;;14.52;;
40339;SDS011;26044;50.864;20.658;2022-12-18T08:21:47;44.25;;;15.38;;
40339;SDS011;26044;50.864;20.658;2022-12-18T08:24:17;48.25;;;17.55;;
40339;SDS011;26044;50.864;20.658;2022-12-18T08:26:57;44.72;;;17.58;;
40339;SDS011;26044;50.864;20.658;2022-12-18T08:29:51;46.72;;;17.00;;
40339;SDS011;26044;50.864;20.658;2022-12-18T08:32:24;42.85;;;16.13;;
40339;SDS011;26044;50.864;20.658;2022-12-18T08:34:54;46.08;;;17.00;;
40339;SDS011;26044;50.864;20.658;2022-12-18T08:37:23;46.38;;;16.60;;
40339;SDS011;26044;50.864;20.658;2022-12-18T08:40:00;52.63;;;19.30;;
40339;SDS011;26044;50.864;20.658;2022-12-18T08:42:33;47.65;;;16.58;;
40339;SDS011;26044;50.864;20.658;2022-12-18T08:45:21;41.33;;;15.00;;
40339;SDS011;26044;50.864;20.658;2022-12-18T08:47:53;44.58;;;15.30;;
40339;SDS011;26044;50.864;20.658;2022-12-18T08:50:20;43.93;;;15.50;;
40339;SDS011;26044;50.864;20.658;2022-12-18T08:52:51;40.60;;;14.85;;
40339;SDS011;26044;50.864;20.658;2022-12-18T08:55:21;49.55;;;17.05;;
40339;SDS011;26044;50.864;20.658;2022-12-18T08:57:53;45.58;;;14.90;;
40339;SDS011;26044;50.864;20.658;2022-12-18T09:00:32;46.00;;;16.10;;
40339;SDS011;26044;50.864;20.658;2022-12-18T09:03:28;43.75;;;16.23;;
40339;SDS011;26044;50.864;20.658;2022-12-18T09:06:12;43.27;;;15.53;;
40339;SDS011;26044;50.864;20.658;2022-12-18T09:15:40;46.80;;;16.00;;
40339;SDS011;26044;50.864;20.658;2022-12-18T09:18:08;45.05;;;16.00;;
40339;SDS011;26044;50.864;20.658;2022-12-18T09:20:38;47.63;;;17.60;;
40339;SDS011;26044;50.864;20.658;2022-12-18T09:23:05;47.45;;;16.23;;
40339;SDS011;26044;50.864;20.658;2022-12-18T09:25:32;49.95;;;18.13;;
40339;SDS011;26044;50.864;20.658;2022-12-18T09:28:02;47.97;;;16.33;;
40339;SDS011;26044;50.864;20.658;2022-12-18T09:30:29;50.72;;;17.73;;
40339;SDS011;26044;50.864;20.658;2022-12-18T09:33:02;51.60;;;17.58;;
40339;SDS011;26044;50.864;20.658;2022-12-18T09:46:42;46.95;;;16.25;;
40339;SDS011;26044;50.864;20.658;2022-12-18T09:49:55;47.15;;;16.08;;
40339;SDS011;26044;50.864;20.658;2022-12-18T10:07:29;54.50;;;19.13;;
40339;SDS011;26044;50.864;20.658;2022-12-18T10:26:23;59.78;;;18.85;;
40339;SDS011;26044;50.864;20.658;2022-12-18T10:36:02;73.43;;;31.70;;
40339;SDS011;26044;50.864;20.658;2022-12-18T10:52:54;51.35;;;20.60;;
40339;SDS011;26044;50.864;20.658;2022-12-18T10:56:04;52.00;;;18.80;;
40339;SDS011;26044;50.864;20.658;2022-12-18T11:06:05;59.58;;;21.98;;
40339;SDS011;26044;50.864;20.658;2022-12-18T11:09:32;57.72;;;19.73;;
40339;SDS011;26044;50.864;20.658;2022-12-18T11:23:23;52.97;;;18.95;;
40339;SDS011;26044;50.864;20.658;2022-12-18T11:26:22;55.75;;;18.23;;
40339;SDS011;26044;50.864;20.658;2022-12-18T11:32:49;51.80;;;18.25;;
40339;SDS011;26044;50.864;20.658;2022-12-18T11:36:41;52.72;;;20.80;;
40339;SDS011;26044;50.864;20.658;2022-12-18T11:45:43;54.55;;;18.80;;
40339;SDS011;26044;50.864;20.658;2022-12-18T11:54:58;52.80;;;18.88;;
40339;SDS011;26044;50.864;20.658;2022-12-18T12:00:55;61.08;;;23.35;;
40339;SDS011;26044;50.864;20.658;2022-12-18T12:06:10;50.92;;;19.55;;
40339;SDS011;26044;50.864;20.658;2022-12-18T12:11:13;49.25;;;19.52;;
40339;SDS011;26044;50.864;20.658;2022-12-18T12:16:17;54.40;;;19.13;;
40339;SDS011;26044;50.864;20.658;2022-12-18T12:21:42;51.25;;;18.83;;
40339;SDS011;26044;50.864;20.658;2022-12-18T12:32:20;55.33;;;17.73;;
40339;SDS011;26044;50.864;20.658;2022-12-18T12:44:25;50.42;;;18.10;;
40339;SDS011;26044;50.864;20.658;2022-12-18T12:47:28;53.03;;;21.00;;
40339;SDS011;26044;50.864;20.658;2022-12-18T12:50:35;60.15;;;22.20;;
40339;SDS011;26044;50.864;20.658;2022-12-18T13:32:49;52.20;;;18.08;;
40339;SDS011;26044;50.864;20.658;2022-12-18T13:50:04;50.60;;;20.25;;
40339;SDS011;26044;50.864;20.658;2022-12-18T13:53:36;48.53;;;17.52;;
40339;SDS011;26044;50.864;20.658;2022-12-18T13:56:42;51.28;;;18.17;;
40339;SDS011;26044;50.864;20.658;2022-12-18T14:07:13;47.95;;;17.90;;
40339;SDS011;26044;50.864;20.658;2022-12-18T14:20:17;49.40;;;17.25;;
40339;SDS011;26044;50.864;20.658;2022-12-18T14:34:08;41.00;;;15.10;;
40339;SDS011;26044;50.864;20.658;2022-12-18T14:47:31;46.17;;;17.90;;
40339;SDS011;26044;50.864;20.658;2022-12-18T14:49:59;42.75;;;16.20;;
40339;SDS011;26044;50.864;20.658;2022-12-18T14:52:32;43.28;;;14.93;;
40339;SDS011;26044;50.864;20.658;2022-12-18T14:55:25;47.40;;;16.05;;
40339;SDS011;26044;50.864;20.658;2022-12-18T14:57:56;50.92;;;17.00;;
40339;SDS011;26044;50.864;20.658;2022-12-18T15:00:34;44.50;;;15.53;;
40339;SDS011;26044;50.864;20.658;2022-12-18T15:03:24;43.25;;;15.95;;
40339;SDS011;26044;50.864;20.658;2022-12-18T15:05:54;46.05;;;16.10;;
40339;SDS011;26044;50.864;20.658;2022-12-18T15:14:28;43.53;;;17.55;;
40339;SDS011;26044;50.864;20.658;2022-12-18T15:17:16;43.13;;;16.25;;
40339;SDS011;26044;50.864;20.658;2022-12-18T15:19:44;45.53;;;16.90;;
40339;SDS011;26044;50.864;20.658;2022-12-18T15:22:20;41.50;;;16.58;;
40339;SDS011;26044;50.864;20.658;2022-12-18T15:24:48;42.50;;;16.05;;
40339;SDS011;26044;50.864;20.658;2022-12-18T15:30:01;50.10;;;17.80;;
40339;SDS011;26044;50.864;20.658;2022-12-18T15:32:37;107.57;;;34.10;;
40339;SDS011;26044;50.864;20.658;2022-12-18T15:35:21;79.65;;;26.05;;
40339;SDS011;26044;50.864;20.658;2022-12-18T15:41:18;89.85;;;29.02;;
40339;SDS011;26044;50.864;20.658;2022-12-18T15:47:21;71.50;;;24.63;;
40339;SDS011;26044;50.864;20.658;2022-12-18T15:50:07;120.22;;;39.92;;
40339;SDS011;26044;50.864;20.658;2022-12-18T15:52:40;96.22;;;34.05;;
40339;SDS011;26044;50.864;20.658;2022-12-18T15:55:33;76.10;;;24.75;;
40339;SDS011;26044;50.864;20.658;2022-12-18T15:58:28;62.22;;;23.05;;
40339;SDS011;26044;50.864;20.658;2022-12-18T16:00:56;53.38;;;20.63;;
40339;SDS011;26044;50.864;20.658;2022-12-18T16:03:25;51.22;;;20.35;;
40339;SDS011;26044;50.864;20.658;2022-12-18T16:05:54;54.63;;;20.40;;
40339;SDS011;26044;50.864;20.658;2022-12-18T16:08:25;53.22;;;17.92;;
40339;SDS011;26044;50.864;20.658;2022-12-18T16:10:54;46.83;;;16.05;;
40339;SDS011;26044;50.864;20.658;2022-12-18T16:13:32;50.72;;;19.40;;
40339;SDS011;26044;50.864;20.658;2022-12-18T16:16:07;67.18;;;24.10;;
40339;SDS011;26044;50.864;20.658;2022-12-18T16:18:35;72.28;;;27.65;;
40339;SDS011;26044;50.864;20.658;2022-12-18T16:21:02;68.57;;;27.40;;
40339;SDS011;26044;50.864;20.658;2022-12-18T16:23:29;102.68;;;36.83;;
40339;SDS011;26044;50.864;20.658;2022-12-18T16:25:57;70.32;;;25.75;;
40339;SDS011;26044;50.864;20.658;2022-12-18T16:28:27;57.22;;;21.45;;
40339;SDS011;26044;50.864;20.658;2022-12-18T16:30:56;45.03;;;18.30;;
40339;SDS011;26044;50.864;20.658;2022-12-18T16:33:24;55.85;;;22.63;;
40339;SDS011;26044;50.864;20.658;2022-12-18T16:35:56;67.20;;;25.38;;
40339;SDS011;26044;50.864;20.658;2022-12-18T16:38:42;71.22;;;28.83;;
40339;SDS011;26044;50.864;20.658;2022-12-18T16:41:19;78.63;;;30.15;;
40339;SDS011;26044;50.864;20.658;2022-12-18T16:44:13;55.83;;;20.27;;
40339;SDS011;26044;50.864;20.658;2022-12-18T16:46:43;55.53;;;20.60;;
40339;SDS011;26044;50.864;20.658;2022-12-18T16:52:49;55.92;;;20.95;;
40339;SDS011;26044;50.864;20.658;2022-12-18T16:55:21;51.63;;;20.55;;
40339;SDS011;26044;50.864;20.658;2022-12-18T16:58:00;57.17;;;21.48;;
40339;SDS011;26044;50.864;20.658;2022-12-18T17:00:32;60.53;;;24.25;;
40339;SDS011;26044;50.864;20.658;2022-12-18T17:03:20;83.35;;;31.13;;
40339;SDS011;26044;50.864;20.658;2022-12-18T17:05:52;104.55;;;40.25;;
40339;SDS011;26044;50.864;20.658;2022-12-18T17:08:26;134.98;;;51.38;;
40339;SDS011;26044;50.864;20.658;2022-12-18T17:10:53;168.68;;;59.38;;
40339;SDS011;26044;50.864;20.658;2022-12-18T17:13:28;72.03;;;27.75;;
40339;SDS011;26044;50.864;20.658;2022-12-18T17:16:18;78.13;;;29.33;;
40339;SDS011;26044;50.864;20.658;2022-12-18T17:18:53;78.70;;;30.05;;
40339;SDS011;26044;50.864;20.658;2022-12-18T17:21:24;72.05;;;27.65;;
40339;SDS011;26044;50.864;20.658;2022-12-18T17:23:54;75.47;;;30.75;;
40339;SDS011;26044;50.864;20.658;2022-12-18T17:26:25;101.20;;;40.17;;
40339;SDS011;26044;50.864;20.658;2022-12-18T17:28:54;93.22;;;36.00;;
40339;SDS011;26044;50.864;20.658;2022-12-18T17:31:27;67.35;;;27.55;;
40339;SDS011;26044;50.864;20.658;2022-12-18T17:33:55;101.80;;;41.78;;
40339;SDS011;26044;50.864;20.658;2022-12-18T17:36:32;70.43;;;27.48;;
40339;SDS011;26044;50.864;20.658;2022-12-18T17:39:00;63.25;;;24.92;;
40339;SDS011;26044;50.864;20.658;2022-12-18T17:41:29;61.75;;;24.10;;
40339;SDS011;26044;50.864;20.658;2022-12-18T17:44:02;65.88;;;25.42;;
40339;SDS011;26044;50.864;20.658;2022-12-18T17:46:32;65.03;;;26.10;;
40339;SDS011;26044;50.864;20.658;2022-12-18T17:49:00;69.22;;;26.30;;
40339;SDS011;26044;50.864;20.658;2022-12-18T17:54:11;66.85;;;25.90;;
40339;SDS011;26044;50.864;20.658;2022-12-18T17:56:41;71.60;;;26.48;;
40339;SDS011;26044;50.864;20.658;2022-12-18T17:59:10;81.07;;;28.52;;
40339;SDS011;26044;50.864;20.658;2022-12-18T18:01:37;64.55;;;25.80;;
40339;SDS011;26044;50.864;20.658;2022-12-18T18:04:31;208.20;;;78.30;;
40339;SDS011;26044;50.864;20.658;2022-12-18T18:07:00;111.20;;;45.03;;
40339;SDS011;26044;50.864;20.658;2022-12-18T18:09:43;57.88;;;23.40;;
40339;SDS011;26044;50.864;20.658;2022-12-18T18:12:19;59.53;;;21.92;;
40339;SDS011;26044;50.864;20.658;2022-12-18T18:15:19;60.10;;;23.10;;
40339;SDS011;26044;50.864;20.658;2022-12-18T18:17:53;92.80;;;34.85;;
40339;SDS011;26044;50.864;20.658;2022-12-18T18:23:44;87.37;;;34.73;;
40339;SDS011;26044;50.864;20.658;2022-12-18T18:26:22;112.90;;;39.90;;
40339;SDS011;26044;50.864;20.658;2022-12-18T18:29:05;68.82;;;26.48;;
40339;SDS011;26044;50.864;20.658;2022-12-18T18:31:35;108.60;;;33.38;;
40339;SDS011;26044;50.864;20.658;2022-12-18T18:34:06;70.55;;;23.25;;
40339;SDS011;26044;50.864;20.658;2022-12-18T18:36:38;73.70;;;26.20;;
40339;SDS011;26044;50.864;20.658;2022-12-18T18:39:13;116.88;;;35.38;;
40339;SDS011;26044;50.864;20.658;2022-12-18T18:41:45;70.97;;;26.33;;
40339;SDS011;26044;50.864;20.658;2022-12-18T18:44:14;60.17;;;22.23;;
40339;SDS011;26044;50.864;20.658;2022-12-18T18:46:44;73.78;;;25.60;;
40339;SDS011;26044;50.864;20.658;2022-12-18T18:49:45;89.60;;;35.30;;
40339;SDS011;26044;50.864;20.658;2022-12-18T18:52:12;62.58;;;22.77;;
40339;SDS011;26044;50.864;20.658;2022-12-18T18:54:45;55.38;;;19.42;;
40339;SDS011;26044;50.864;20.658;2022-12-18T18:57:37;77.65;;;26.05;;
40339;SDS011;26044;50.864;20.658;2022-12-18T19:00:14;70.50;;;22.40;;
40339;SDS011;26044;50.864;20.658;2022-12-18T19:03:17;42.30;;;14.13;;
40339;SDS011;26044;50.864;20.658;2022-12-18T19:05:58;46.40;;;17.73;;
40339;SDS011;26044;50.864;20.658;2022-12-18T19:08:35;45.77;;;14.47;;
40339;SDS011;26044;50.864;20.658;2022-12-18T19:14:10;43.73;;;15.87;;
40339;SDS011;26044;50.864;20.658;2022-12-18T19:16:52;43.20;;;16.17;;
40339;SDS011;26044;50.864;20.658;2022-12-18T19:19:20;45.77;;;15.97;;
40339;SDS011;26044;50.864;20.658;2022-12-18T19:30:50;45.87;;;17.37;;
40339;SDS011;26044;50.864;20.658;2022-12-18T19:33:24;46.27;;;15.23;;
40339;SDS011;26044;50.864;20.658;2022-12-18T19:36:12;39.27;;;13.33;;
40339;SDS011;26044;50.864;20.658;2022-12-18T19:45:43;49.23;;;16.50;;
40339;SDS011;26044;50.864;20.658;2022-12-18T19:48:26;48.20;;;16.27;;
40339;SDS011;26044;50.864;20.658;2022-12-18T19:50:53;43.50;;;14.80;;
40339;SDS011;26044;50.864;20.658;2022-12-18T19:53:23;49.05;;;15.25;;
40339;SDS011;26044;50.864;20.658;2022-12-18T19:56:13;57.47;;;19.47;;
40339;SDS011;26044;50.864;20.658;2022-12-18T19:58:55;47.10;;;16.60;;
40339;SDS011;26044;50.864;20.658;2022-12-18T20:01:35;39.67;;;13.80;;
40339;SDS011;26044;50.864;20.658;2022-12-18T20:04:03;44.50;;;16.88;;
40339;SDS011;26044;50.864;20.658;2022-12-18T20:08:59;44.97;;;15.93;;
40339;SDS011;26044;50.864;20.658;2022-12-18T20:11:28;46.67;;;17.20;;
40339;SDS011;26044;50.864;20.658;2022-12-18T20:14:03;42.03;;;15.67;;
40339;SDS011;26044;50.864;20.658;2022-12-18T20:16:44;42.27;;;14.43;;